sensor_id;sensor_type;location;lat;lon;timestamp;P1;durP1;ratioP1;P2;durP2;ratioP2
19883;SDS011;10104;50.732;10.174;2023-04-29T00:00:00;7.03;;;6.10;;
19883;SDS011;10104;50.732;10.174;2023-04-29T00:02:21;10.50;;;6.93;;
19883;SDS011;10104;50.732;10.174;2023-04-29T00:04:43;8.30;;;6.93;;
19883;SDS011;10104;50.732;10.174;2023-04-29T00:07:05;7.40;;;6.70;;
19883;SDS011;10104;50.732;10.174;2023-04-29T00:09:28;7.50;;;6.80;;
19883;SDS011;10104;50.732;10.174;2023-04-29T00:11:49;8.23;;;6.90;;
19883;SDS011;10104;50.732;10.174;2023-04-29T00:14:11;7.80;;;7.00;;
19883;SDS011;10104;50.732;10.174;2023-04-29T00:16:33;8.63;;;7.00;;
19883;SDS011;10104;50.732;10.174;2023-04-29T00:18:55;10.60;;;7.63;;
19883;SDS011;10104;50.732;10.174;2023-04-29T00:21:17;10.67;;;7.50;;
19883;SDS011;10104;50.732;10.174;2023-04-29T00:23:38;8.07;;;6.93;;
19883;SDS011;10104;50.732;10.174;2023-04-29T00:26:00;9.47;;;7.80;;
19883;SDS011;10104;50.732;10.174;2023-04-29T00:28:21;10.80;;;7.17;;
19883;SDS011;10104;50.732;10.174;2023-04-29T00:30:43;8.43;;;7.53;;
19883;SDS011;10104;50.732;10.174;2023-04-29T00:33:04;8.23;;;7.23;;
19883;SDS011;10104;50.732;10.174;2023-04-29T00:35:26;8.83;;;7.93;;
19883;SDS011;10104;50.732;10.174;2023-04-29T00:37:47;8.07;;;7.10;;
19883;SDS011;10104;50.732;10.174;2023-04-29T00:40:09;9.37;;;7.53;;
19883;SDS011;10104;50.732;10.174;2023-04-29T00:42:30;8.07;;;7.27;;
19883;SDS011;10104;50.732;10.174;2023-04-29T00:44:54;8.13;;;7.37;;
19883;SDS011;10104;50.732;10.174;2023-04-29T00:47:16;8.43;;;7.63;;
19883;SDS011;10104;50.732;10.174;2023-04-29T00:49:37;8.73;;;7.27;;
19883;SDS011;10104;50.732;10.174;2023-04-29T00:51:59;9.53;;;8.50;;
19883;SDS011;10104;50.732;10.174;2023-04-29T00:54:22;9.17;;;8.17;;
19883;SDS011;10104;50.732;10.174;2023-04-29T00:56:44;11.03;;;8.33;;
19883;SDS011;10104;50.732;10.174;2023-04-29T00:59:06;8.47;;;7.67;;
19883;SDS011;10104;50.732;10.174;2023-04-29T01:01:30;8.63;;;7.73;;
19883;SDS011;10104;50.732;10.174;2023-04-29T01:03:52;8.37;;;7.50;;
19883;SDS011;10104;50.732;10.174;2023-04-29T01:11:57;8.47;;;7.60;;
19883;SDS011;10104;50.732;10.174;2023-04-29T01:14:28;9.23;;;7.30;;
19883;SDS011;10104;50.732;10.174;2023-04-29T01:16:55;7.60;;;6.07;;
19883;SDS011;10104;50.732;10.174;2023-04-29T01:19:43;6.57;;;5.83;;
19883;SDS011;10104;50.732;10.174;2023-04-29T01:22:07;8.77;;;7.57;;
19883;SDS011;10104;50.732;10.174;2023-04-29T01:24:28;7.83;;;7.07;;
19883;SDS011;10104;50.732;10.174;2023-04-29T01:26:56;10.87;;;8.10;;
19883;SDS011;10104;50.732;10.174;2023-04-29T01:29:27;7.87;;;7.07;;
19883;SDS011;10104;50.732;10.174;2023-04-29T01:32:03;10.50;;;9.00;;
19883;SDS011;10104;50.732;10.174;2023-04-29T01:34:43;9.40;;;8.07;;
19883;SDS011;10104;50.732;10.174;2023-04-29T01:37:18;11.17;;;8.93;;
19883;SDS011;10104;50.732;10.174;2023-04-29T01:39:47;10.13;;;8.73;;
19883;SDS011;10104;50.732;10.174;2023-04-29T01:42:38;9.50;;;8.20;;
19883;SDS011;10104;50.732;10.174;2023-04-29T01:45:05;12.07;;;8.67;;
19883;SDS011;10104;50.732;10.174;2023-04-29T01:47:28;12.43;;;8.63;;
19883;SDS011;10104;50.732;10.174;2023-04-29T01:49:50;10.77;;;9.47;;
19883;SDS011;10104;50.732;10.174;2023-04-29T01:52:13;9.37;;;8.43;;
19883;SDS011;10104;50.732;10.174;2023-04-29T01:54:34;9.67;;;8.47;;
19883;SDS011;10104;50.732;10.174;2023-04-29T01:56:58;10.80;;;9.63;;
19883;SDS011;10104;50.732;10.174;2023-04-29T01:59:20;9.93;;;8.83;;
19883;SDS011;10104;50.732;10.174;2023-04-29T02:01:42;11.50;;;9.87;;
19883;SDS011;10104;50.732;10.174;2023-04-29T02:04:04;11.30;;;10.20;;
19883;SDS011;10104;50.732;10.174;2023-04-29T02:06:25;11.07;;;9.67;;
19883;SDS011;10104;50.732;10.174;2023-04-29T02:08:48;11.60;;;9.27;;
19883;SDS011;10104;50.732;10.174;2023-04-29T02:11:09;12.97;;;11.13;;
19883;SDS011;10104;50.732;10.174;2023-04-29T02:13:31;12.80;;;10.83;;
19883;SDS011;10104;50.732;10.174;2023-04-29T02:15:52;14.47;;;11.63;;
19883;SDS011;10104;50.732;10.174;2023-04-29T02:18:14;13.00;;;11.57;;
19883;SDS011;10104;50.732;10.174;2023-04-29T02:20:36;13.23;;;11.83;;
19883;SDS011;10104;50.732;10.174;2023-04-29T02:22:57;14.23;;;12.40;;
19883;SDS011;10104;50.732;10.174;2023-04-29T02:25:19;13.80;;;12.10;;
19883;SDS011;10104;50.732;10.174;2023-04-29T02:27:41;13.60;;;11.90;;
19883;SDS011;10104;50.732;10.174;2023-04-29T02:30:02;15.43;;;12.53;;
19883;SDS011;10104;50.732;10.174;2023-04-29T02:32:24;14.13;;;12.33;;
19883;SDS011;10104;50.732;10.174;2023-04-29T02:34:46;13.73;;;12.23;;
19883;SDS011;10104;50.732;10.174;2023-04-29T02:37:07;14.63;;;13.10;;
19883;SDS011;10104;50.732;10.174;2023-04-29T02:39:29;14.93;;;13.33;;
19883;SDS011;10104;50.732;10.174;2023-04-29T02:41:52;15.70;;;13.60;;
19883;SDS011;10104;50.732;10.174;2023-04-29T02:44:15;18.33;;;14.20;;
19883;SDS011;10104;50.732;10.174;2023-04-29T02:46:37;17.97;;;14.70;;
19883;SDS011;10104;50.732;10.174;2023-04-29T02:49:01;17.23;;;15.07;;
19883;SDS011;10104;50.732;10.174;2023-04-29T02:51:22;15.83;;;14.13;;
19883;SDS011;10104;50.732;10.174;2023-04-29T02:53:44;17.00;;;14.77;;
19883;SDS011;10104;50.732;10.174;2023-04-29T02:56:06;19.67;;;15.40;;
19883;SDS011;10104;50.732;10.174;2023-04-29T02:58:27;18.63;;;14.57;;
19883;SDS011;10104;50.732;10.174;2023-04-29T03:00:49;18.23;;;14.90;;
19883;SDS011;10104;50.732;10.174;2023-04-29T03:03:11;16.53;;;14.53;;
19883;SDS011;10104;50.732;10.174;2023-04-29T03:05:32;19.23;;;15.60;;
19883;SDS011;10104;50.732;10.174;2023-04-29T03:07:55;16.17;;;14.43;;
19883;SDS011;10104;50.732;10.174;2023-04-29T03:10:16;16.83;;;14.67;;
19883;SDS011;10104;50.732;10.174;2023-04-29T03:12:39;17.80;;;14.73;;
19883;SDS011;10104;50.732;10.174;2023-04-29T03:15:01;19.67;;;15.90;;
19883;SDS011;10104;50.732;10.174;2023-04-29T03:17:22;17.33;;;15.40;;
19883;SDS011;10104;50.732;10.174;2023-04-29T03:19:44;16.90;;;15.10;;
19883;SDS011;10104;50.732;10.174;2023-04-29T03:22:05;19.37;;;16.70;;
19883;SDS011;10104;50.732;10.174;2023-04-29T03:24:28;20.10;;;16.53;;
19883;SDS011;10104;50.732;10.174;2023-04-29T03:26:49;24.03;;;17.97;;
19883;SDS011;10104;50.732;10.174;2023-04-29T03:29:11;19.27;;;16.53;;
19883;SDS011;10104;50.732;10.174;2023-04-29T03:31:32;19.10;;;16.33;;
19883;SDS011;10104;50.732;10.174;2023-04-29T03:33:54;21.00;;;16.47;;
19883;SDS011;10104;50.732;10.174;2023-04-29T03:36:16;21.17;;;17.07;;
19883;SDS011;10104;50.732;10.174;2023-04-29T03:38:37;20.53;;;17.70;;
19883;SDS011;10104;50.732;10.174;2023-04-29T03:40:59;19.37;;;17.27;;
19883;SDS011;10104;50.732;10.174;2023-04-29T03:43:20;21.60;;;17.60;;
19883;SDS011;10104;50.732;10.174;2023-04-29T03:45:42;23.77;;;19.07;;
19883;SDS011;10104;50.732;10.174;2023-04-29T03:48:04;20.10;;;17.73;;
19883;SDS011;10104;50.732;10.174;2023-04-29T03:50:26;24.30;;;18.57;;
19883;SDS011;10104;50.732;10.174;2023-04-29T03:52:47;21.47;;;17.97;;
19883;SDS011;10104;50.732;10.174;2023-04-29T03:55:09;20.87;;;17.17;;
19883;SDS011;10104;50.732;10.174;2023-04-29T03:57:31;20.47;;;17.67;;
19883;SDS011;10104;50.732;10.174;2023-04-29T03:59:53;18.47;;;16.23;;
19883;SDS011;10104;50.732;10.174;2023-04-29T04:02:15;18.83;;;16.17;;
19883;SDS011;10104;50.732;10.174;2023-04-29T04:04:37;19.70;;;15.20;;
19883;SDS011;10104;50.732;10.174;2023-04-29T04:06:59;18.80;;;15.73;;
19883;SDS011;10104;50.732;10.174;2023-04-29T04:09:21;19.17;;;16.10;;
19883;SDS011;10104;50.732;10.174;2023-04-29T04:11:42;17.53;;;14.70;;
19883;SDS011;10104;50.732;10.174;2023-04-29T04:14:04;17.97;;;15.10;;
19883;SDS011;10104;50.732;10.174;2023-04-29T04:16:26;16.03;;;13.30;;
19883;SDS011;10104;50.732;10.174;2023-04-29T04:18:48;15.03;;;13.17;;
19883;SDS011;10104;50.732;10.174;2023-04-29T04:21:10;14.13;;;12.47;;
19883;SDS011;10104;50.732;10.174;2023-04-29T04:23:32;13.63;;;11.40;;
19883;SDS011;10104;50.732;10.174;2023-04-29T04:25:54;17.23;;;12.67;;
19883;SDS011;10104;50.732;10.174;2023-04-29T04:28:15;15.70;;;12.60;;
19883;SDS011;10104;50.732;10.174;2023-04-29T04:30:37;14.83;;;12.13;;
19883;SDS011;10104;50.732;10.174;2023-04-29T04:32:58;17.20;;;13.33;;
19883;SDS011;10104;50.732;10.174;2023-04-29T04:35:20;17.70;;;13.27;;
19883;SDS011;10104;50.732;10.174;2023-04-29T04:37:42;18.40;;;13.87;;
19883;SDS011;10104;50.732;10.174;2023-04-29T04:40:03;20.53;;;14.37;;
19883;SDS011;10104;50.732;10.174;2023-04-29T04:42:25;20.13;;;13.60;;
19883;SDS011;10104;50.732;10.174;2023-04-29T04:44:47;18.50;;;14.40;;
19883;SDS011;10104;50.732;10.174;2023-04-29T04:47:08;22.60;;;15.67;;
19883;SDS011;10104;50.732;10.174;2023-04-29T04:49:31;21.33;;;15.73;;
19883;SDS011;10104;50.732;10.174;2023-04-29T04:51:53;18.53;;;13.97;;
19883;SDS011;10104;50.732;10.174;2023-04-29T04:54:14;15.90;;;12.20;;
19883;SDS011;10104;50.732;10.174;2023-04-29T04:56:36;13.30;;;10.27;;
19883;SDS011;10104;50.732;10.174;2023-04-29T04:58:58;14.80;;;11.73;;
19883;SDS011;10104;50.732;10.174;2023-04-29T05:01:19;16.83;;;11.70;;
19883;SDS011;10104;50.732;10.174;2023-04-29T05:03:41;17.13;;;12.30;;
19883;SDS011;10104;50.732;10.174;2023-04-29T05:06:03;13.80;;;11.07;;
19883;SDS011;10104;50.732;10.174;2023-04-29T05:08:25;11.10;;;8.90;;
19883;SDS011;10104;50.732;10.174;2023-04-29T05:10:46;12.03;;;9.60;;
19883;SDS011;10104;50.732;10.174;2023-04-29T05:13:08;10.57;;;8.87;;
19883;SDS011;10104;50.732;10.174;2023-04-29T05:15:30;11.03;;;9.43;;
19883;SDS011;10104;50.732;10.174;2023-04-29T05:17:51;11.03;;;8.90;;
19883;SDS011;10104;50.732;10.174;2023-04-29T05:20:13;10.20;;;8.67;;
19883;SDS011;10104;50.732;10.174;2023-04-29T05:22:34;11.43;;;9.03;;
19883;SDS011;10104;50.732;10.174;2023-04-29T05:24:56;12.13;;;9.13;;
19883;SDS011;10104;50.732;10.174;2023-04-29T05:27:23;11.50;;;9.03;;
19883;SDS011;10104;50.732;10.174;2023-04-29T05:29:44;12.43;;;9.83;;
19883;SDS011;10104;50.732;10.174;2023-04-29T05:32:05;13.43;;;11.07;;
19883;SDS011;10104;50.732;10.174;2023-04-29T05:34:27;14.77;;;11.33;;
19883;SDS011;10104;50.732;10.174;2023-04-29T05:36:49;15.20;;;11.37;;
19883;SDS011;10104;50.732;10.174;2023-04-29T05:39:10;16.33;;;12.13;;
19883;SDS011;10104;50.732;10.174;2023-04-29T05:41:31;14.20;;;11.93;;
19883;SDS011;10104;50.732;10.174;2023-04-29T05:43:53;15.87;;;12.33;;
19883;SDS011;10104;50.732;10.174;2023-04-29T05:46:15;18.60;;;13.40;;
19883;SDS011;10104;50.732;10.174;2023-04-29T05:48:36;16.60;;;13.20;;
19883;SDS011;10104;50.732;10.174;2023-04-29T05:50:59;17.47;;;13.57;;
19883;SDS011;10104;50.732;10.174;2023-04-29T05:53:20;16.33;;;13.20;;
19883;SDS011;10104;50.732;10.174;2023-04-29T05:55:42;16.57;;;13.30;;
19883;SDS011;10104;50.732;10.174;2023-04-29T05:58:05;15.67;;;12.80;;
19883;SDS011;10104;50.732;10.174;2023-04-29T06:00:26;15.53;;;12.40;;
19883;SDS011;10104;50.732;10.174;2023-04-29T06:02:48;13.70;;;11.30;;
19883;SDS011;10104;50.732;10.174;2023-04-29T06:05:19;13.63;;;11.23;;
19883;SDS011;10104;50.732;10.174;2023-04-29T06:07:41;15.60;;;11.60;;
19883;SDS011;10104;50.732;10.174;2023-04-29T06:10:04;13.30;;;11.90;;
19883;SDS011;10104;50.732;10.174;2023-04-29T06:12:26;14.97;;;12.10;;
19883;SDS011;10104;50.732;10.174;2023-04-29T06:14:47;14.90;;;12.47;;
19883;SDS011;10104;50.732;10.174;2023-04-29T06:17:10;17.13;;;13.30;;
19883;SDS011;10104;50.732;10.174;2023-04-29T06:19:32;15.10;;;11.80;;
19883;SDS011;10104;50.732;10.174;2023-04-29T06:21:54;15.07;;;12.73;;
19883;SDS011;10104;50.732;10.174;2023-04-29T06:24:15;13.67;;;11.13;;
19883;SDS011;10104;50.732;10.174;2023-04-29T06:26:37;14.90;;;12.40;;
19883;SDS011;10104;50.732;10.174;2023-04-29T06:28:58;13.13;;;11.60;;
19883;SDS011;10104;50.732;10.174;2023-04-29T06:31:20;12.77;;;11.33;;
19883;SDS011;10104;50.732;10.174;2023-04-29T06:33:43;15.10;;;11.43;;
19883;SDS011;10104;50.732;10.174;2023-04-29T06:36:04;14.90;;;11.70;;
19883;SDS011;10104;50.732;10.174;2023-04-29T06:38:26;11.73;;;10.20;;
19883;SDS011;10104;50.732;10.174;2023-04-29T06:40:47;11.83;;;10.00;;
19883;SDS011;10104;50.732;10.174;2023-04-29T06:43:09;9.80;;;8.80;;
19883;SDS011;10104;50.732;10.174;2023-04-29T06:45:30;9.37;;;8.17;;
19883;SDS011;10104;50.732;10.174;2023-04-29T06:47:52;10.73;;;7.90;;
19883;SDS011;10104;50.732;10.174;2023-04-29T06:50:14;9.87;;;8.60;;
19883;SDS011;10104;50.732;10.174;2023-04-29T06:52:35;9.57;;;7.80;;
19883;SDS011;10104;50.732;10.174;2023-04-29T06:54:56;8.67;;;7.83;;
19883;SDS011;10104;50.732;10.174;2023-04-29T06:57:18;9.90;;;8.13;;
19883;SDS011;10104;50.732;10.174;2023-04-29T06:59:40;7.27;;;6.43;;
19883;SDS011;10104;50.732;10.174;2023-04-29T07:02:02;8.53;;;6.60;;
19883;SDS011;10104;50.732;10.174;2023-04-29T07:04:23;9.77;;;8.07;;
19883;SDS011;10104;50.732;10.174;2023-04-29T07:06:45;7.43;;;6.73;;
19883;SDS011;10104;50.732;10.174;2023-04-29T07:09:07;10.35;;;6.93;;
19883;SDS011;10104;50.732;10.174;2023-04-29T07:11:29;8.50;;;6.57;;
19883;SDS011;10104;50.732;10.174;2023-04-29T07:13:53;7.50;;;6.57;;
19883;SDS011;10104;50.732;10.174;2023-04-29T07:16:15;8.50;;;7.30;;
19883;SDS011;10104;50.732;10.174;2023-04-29T07:18:42;12.47;;;6.80;;
19883;SDS011;10104;50.732;10.174;2023-04-29T07:21:04;6.83;;;6.07;;
19883;SDS011;10104;50.732;10.174;2023-04-29T07:23:25;6.70;;;6.00;;
19883;SDS011;10104;50.732;10.174;2023-04-29T07:25:47;9.13;;;6.90;;
19883;SDS011;10104;50.732;10.174;2023-04-29T07:28:08;9.00;;;7.07;;
19883;SDS011;10104;50.732;10.174;2023-04-29T07:30:30;6.03;;;4.73;;
19883;SDS011;10104;50.732;10.174;2023-04-29T07:32:51;6.73;;;5.23;;
19883;SDS011;10104;50.732;10.174;2023-04-29T07:35:13;6.03;;;5.17;;
19883;SDS011;10104;50.732;10.174;2023-04-29T07:37:35;5.40;;;4.67;;
19883;SDS011;10104;50.732;10.174;2023-04-29T07:39:56;4.10;;;3.70;;
19883;SDS011;10104;50.732;10.174;2023-04-29T07:42:17;6.20;;;5.60;;
19883;SDS011;10104;50.732;10.174;2023-04-29T07:44:39;4.70;;;3.20;;
19883;SDS011;10104;50.732;10.174;2023-04-29T07:47:01;3.60;;;2.73;;
19883;SDS011;10104;50.732;10.174;2023-04-29T07:49:22;3.37;;;2.90;;
19883;SDS011;10104;50.732;10.174;2023-04-29T07:51:44;4.17;;;3.13;;
19883;SDS011;10104;50.732;10.174;2023-04-29T07:54:05;4.30;;;3.15;;
19883;SDS011;10104;50.732;10.174;2023-04-29T07:56:27;3.67;;;3.00;;
19883;SDS011;10104;50.732;10.174;2023-04-29T07:58:48;4.28;;;2.95;;
19883;SDS011;10104;50.732;10.174;2023-04-29T08:01:10;3.45;;;3.15;;
19883;SDS011;10104;50.732;10.174;2023-04-29T08:03:32;5.30;;;3.75;;
19883;SDS011;10104;50.732;10.174;2023-04-29T08:05:54;4.72;;;3.80;;
19883;SDS011;10104;50.732;10.174;2023-04-29T08:08:20;4.50;;;3.65;;
19883;SDS011;10104;50.732;10.174;2023-04-29T08:10:42;4.72;;;4.18;;
19883;SDS011;10104;50.732;10.174;2023-04-29T08:13:04;4.80;;;3.90;;
19883;SDS011;10104;50.732;10.174;2023-04-29T08:15:25;6.95;;;4.28;;
19883;SDS011;10104;50.732;10.174;2023-04-29T08:17:47;6.97;;;4.07;;
19883;SDS011;10104;50.732;10.174;2023-04-29T08:20:08;4.78;;;3.90;;
19883;SDS011;10104;50.732;10.174;2023-04-29T08:22:30;6.32;;;4.13;;
19883;SDS011;10104;50.732;10.174;2023-04-29T08:24:51;6.53;;;4.60;;
19883;SDS011;10104;50.732;10.174;2023-04-29T08:27:13;6.03;;;3.78;;
19883;SDS011;10104;50.732;10.174;2023-04-29T08:29:35;4.03;;;3.63;;
19883;SDS011;10104;50.732;10.174;2023-04-29T08:31:57;4.70;;;3.53;;
19883;SDS011;10104;50.732;10.174;2023-04-29T08:34:19;6.20;;;4.35;;
19883;SDS011;10104;50.732;10.174;2023-04-29T08:36:40;5.82;;;4.28;;
19883;SDS011;10104;50.732;10.174;2023-04-29T08:39:02;6.07;;;4.20;;
19883;SDS011;10104;50.732;10.174;2023-04-29T08:41:23;5.03;;;4.28;;
19883;SDS011;10104;50.732;10.174;2023-04-29T08:43:45;6.53;;;5.10;;
19883;SDS011;10104;50.732;10.174;2023-04-29T08:46:07;6.50;;;5.13;;
19883;SDS011;10104;50.732;10.174;2023-04-29T08:48:29;6.53;;;5.63;;
19883;SDS011;10104;50.732;10.174;2023-04-29T08:50:51;7.00;;;5.30;;
19883;SDS011;10104;50.732;10.174;2023-04-29T08:53:13;7.28;;;5.93;;
19883;SDS011;10104;50.732;10.174;2023-04-29T08:55:39;7.22;;;5.93;;
19883;SDS011;10104;50.732;10.174;2023-04-29T08:58:02;6.93;;;5.72;;
19883;SDS011;10104;50.732;10.174;2023-04-29T09:00:23;7.70;;;6.03;;
19883;SDS011;10104;50.732;10.174;2023-04-29T09:02:48;5.90;;;5.20;;
19883;SDS011;10104;50.732;10.174;2023-04-29T09:05:11;5.97;;;5.32;;
19883;SDS011;10104;50.732;10.174;2023-04-29T09:07:33;6.55;;;5.53;;
19883;SDS011;10104;50.732;10.174;2023-04-29T09:09:55;6.82;;;5.55;;
19883;SDS011;10104;50.732;10.174;2023-04-29T09:12:19;7.38;;;5.18;;
19883;SDS011;10104;50.732;10.174;2023-04-29T09:14:41;7.05;;;5.63;;
19883;SDS011;10104;50.732;10.174;2023-04-29T09:17:02;5.38;;;4.82;;
19883;SDS011;10104;50.732;10.174;2023-04-29T09:19:28;6.40;;;5.13;;
19883;SDS011;10104;50.732;10.174;2023-04-29T09:21:55;7.72;;;5.35;;
19883;SDS011;10104;50.732;10.174;2023-04-29T09:24:17;5.65;;;4.80;;
19883;SDS011;10104;50.732;10.174;2023-04-29T09:26:46;7.55;;;5.28;;
19883;SDS011;10104;50.732;10.174;2023-04-29T09:29:11;6.70;;;5.05;;
19883;SDS011;10104;50.732;10.174;2023-04-29T09:31:38;5.65;;;4.88;;
19883;SDS011;10104;50.732;10.174;2023-04-29T09:34:00;5.80;;;4.53;;
19883;SDS011;10104;50.732;10.174;2023-04-29T09:38:58;4.88;;;4.10;;
19883;SDS011;10104;50.732;10.174;2023-04-29T09:41:20;6.05;;;4.40;;
19883;SDS011;10104;50.732;10.174;2023-04-29T09:43:42;6.35;;;4.88;;
19883;SDS011;10104;50.732;10.174;2023-04-29T09:46:03;5.72;;;4.78;;
19883;SDS011;10104;50.732;10.174;2023-04-29T09:48:29;5.90;;;5.20;;
19883;SDS011;10104;50.732;10.174;2023-04-29T09:50:59;6.45;;;5.00;;
19883;SDS011;10104;50.732;10.174;2023-04-29T09:53:29;5.47;;;4.93;;
19883;SDS011;10104;50.732;10.174;2023-04-29T09:58:26;7.60;;;5.65;;
19883;SDS011;10104;50.732;10.174;2023-04-29T10:00:58;13.10;;;5.55;;
19883;SDS011;10104;50.732;10.174;2023-04-29T10:03:23;6.53;;;5.35;;
19883;SDS011;10104;50.732;10.174;2023-04-29T10:05:46;6.15;;;5.55;;
19883;SDS011;10104;50.732;10.174;2023-04-29T10:08:08;8.27;;;6.68;;
19883;SDS011;10104;50.732;10.174;2023-04-29T10:10:30;6.90;;;5.80;;
19883;SDS011;10104;50.732;10.174;2023-04-29T10:12:52;6.60;;;5.90;;
19883;SDS011;10104;50.732;10.174;2023-04-29T10:17:41;7.70;;;6.20;;
19883;SDS011;10104;50.732;10.174;2023-04-29T10:20:06;6.88;;;5.80;;
19883;SDS011;10104;50.732;10.174;2023-04-29T10:22:32;7.30;;;5.95;;
19883;SDS011;10104;50.732;10.174;2023-04-29T10:25:10;6.03;;;5.30;;
19883;SDS011;10104;50.732;10.174;2023-04-29T10:27:32;6.25;;;5.03;;
19883;SDS011;10104;50.732;10.174;2023-04-29T10:29:55;6.18;;;5.57;;
19883;SDS011;10104;50.732;10.174;2023-04-29T10:32:18;6.32;;;5.35;;
19883;SDS011;10104;50.732;10.174;2023-04-29T10:34:42;6.80;;;5.72;;
19883;SDS011;10104;50.732;10.174;2023-04-29T10:37:04;5.72;;;5.22;;
19883;SDS011;10104;50.732;10.174;2023-04-29T10:39:35;6.45;;;5.63;;
19883;SDS011;10104;50.732;10.174;2023-04-29T10:42:03;5.93;;;5.22;;
19883;SDS011;10104;50.732;10.174;2023-04-29T10:44:42;7.38;;;5.72;;
19883;SDS011;10104;50.732;10.174;2023-04-29T10:47:34;6.88;;;6.18;;
19883;SDS011;10104;50.732;10.174;2023-04-29T10:50:02;8.18;;;6.13;;
19883;SDS011;10104;50.732;10.174;2023-04-29T10:52:24;6.82;;;6.13;;
19883;SDS011;10104;50.732;10.174;2023-04-29T10:55:00;6.60;;;5.97;;
19883;SDS011;10104;50.732;10.174;2023-04-29T10:57:25;6.47;;;5.78;;
19883;SDS011;10104;50.732;10.174;2023-04-29T10:59:46;6.82;;;5.75;;
19883;SDS011;10104;50.732;10.174;2023-04-29T11:02:11;7.10;;;6.03;;
19883;SDS011;10104;50.732;10.174;2023-04-29T11:04:33;7.10;;;6.25;;
19883;SDS011;10104;50.732;10.174;2023-04-29T11:06:55;7.10;;;5.95;;
19883;SDS011;10104;50.732;10.174;2023-04-29T11:09:19;8.43;;;6.05;;
19883;SDS011;10104;50.732;10.174;2023-04-29T11:11:45;7.05;;;5.40;;
19883;SDS011;10104;50.732;10.174;2023-04-29T11:14:15;5.70;;;5.05;;
19883;SDS011;10104;50.732;10.174;2023-04-29T11:16:46;7.38;;;4.82;;
19883;SDS011;10104;50.732;10.174;2023-04-29T11:19:09;5.07;;;4.30;;
19883;SDS011;10104;50.732;10.174;2023-04-29T11:21:38;6.05;;;4.95;;
19883;SDS011;10104;50.732;10.174;2023-04-29T11:23:59;6.22;;;5.03;;
19883;SDS011;10104;50.732;10.174;2023-04-29T11:26:22;6.55;;;4.53;;
19883;SDS011;10104;50.732;10.174;2023-04-29T11:28:44;5.20;;;4.70;;
19883;SDS011;10104;50.732;10.174;2023-04-29T11:31:06;7.30;;;5.15;;
19883;SDS011;10104;50.732;10.174;2023-04-29T11:33:30;5.93;;;5.22;;
19883;SDS011;10104;50.732;10.174;2023-04-29T11:35:53;7.05;;;5.32;;
19883;SDS011;10104;50.732;10.174;2023-04-29T11:38:14;7.07;;;5.07;;
19883;SDS011;10104;50.732;10.174;2023-04-29T11:40:40;7.60;;;5.60;;
19883;SDS011;10104;50.732;10.174;2023-04-29T11:43:02;6.28;;;5.57;;
19883;SDS011;10104;50.732;10.174;2023-04-29T11:45:26;6.35;;;5.72;;
19883;SDS011;10104;50.732;10.174;2023-04-29T11:47:48;6.68;;;5.78;;
19883;SDS011;10104;50.732;10.174;2023-04-29T11:50:09;7.82;;;6.03;;
19883;SDS011;10104;50.732;10.174;2023-04-29T11:52:31;6.20;;;5.60;;
19883;SDS011;10104;50.732;10.174;2023-04-29T11:54:53;7.55;;;6.50;;
19883;SDS011;10104;50.732;10.174;2023-04-29T11:57:15;7.47;;;6.63;;
19883;SDS011;10104;50.732;10.174;2023-04-29T11:59:37;6.75;;;6.13;;
19883;SDS011;10104;50.732;10.174;2023-04-29T12:01:59;8.45;;;6.70;;
19883;SDS011;10104;50.732;10.174;2023-04-29T12:04:21;10.73;;;7.20;;
19883;SDS011;10104;50.732;10.174;2023-04-29T12:06:43;7.88;;;6.85;;
19883;SDS011;10104;50.732;10.174;2023-04-29T12:09:04;7.90;;;7.03;;
19883;SDS011;10104;50.732;10.174;2023-04-29T12:11:26;7.97;;;7.10;;
19883;SDS011;10104;50.732;10.174;2023-04-29T12:13:49;8.82;;;7.30;;
19883;SDS011;10104;50.732;10.174;2023-04-29T12:16:10;7.90;;;7.00;;
19883;SDS011;10104;50.732;10.174;2023-04-29T12:18:33;9.80;;;7.73;;
19883;SDS011;10104;50.732;10.174;2023-04-29T12:20:55;9.03;;;8.00;;
19883;SDS011;10104;50.732;10.174;2023-04-29T12:23:18;8.60;;;7.70;;
19883;SDS011;10104;50.732;10.174;2023-04-29T12:25:50;8.20;;;7.40;;
19883;SDS011;10104;50.732;10.174;2023-04-29T12:28:14;8.43;;;7.53;;
19883;SDS011;10104;50.732;10.174;2023-04-29T12:30:36;10.77;;;8.20;;
19883;SDS011;10104;50.732;10.174;2023-04-29T12:32:57;9.47;;;7.90;;
19883;SDS011;10104;50.732;10.174;2023-04-29T12:35:19;9.43;;;8.23;;
19883;SDS011;10104;50.732;10.174;2023-04-29T12:37:42;11.30;;;9.43;;
19883;SDS011;10104;50.732;10.174;2023-04-29T12:40:03;9.60;;;8.50;;
19883;SDS011;10104;50.732;10.174;2023-04-29T12:42:30;9.40;;;8.00;;
19883;SDS011;10104;50.732;10.174;2023-04-29T12:44:53;13.30;;;9.90;;
19883;SDS011;10104;50.732;10.174;2023-04-29T12:47:15;14.53;;;12.17;;
19883;SDS011;10104;50.732;10.174;2023-04-29T12:49:37;12.87;;;9.07;;
19883;SDS011;10104;50.732;10.174;2023-04-29T12:52:02;12.33;;;8.93;;
19883;SDS011;10104;50.732;10.174;2023-04-29T12:54:24;10.27;;;9.17;;
19883;SDS011;10104;50.732;10.174;2023-04-29T12:56:46;10.87;;;9.03;;
19883;SDS011;10104;50.732;10.174;2023-04-29T12:59:09;10.63;;;9.23;;
19883;SDS011;10104;50.732;10.174;2023-04-29T13:01:32;11.60;;;9.70;;
19883;SDS011;10104;50.732;10.174;2023-04-29T13:03:54;12.07;;;9.60;;
19883;SDS011;10104;50.732;10.174;2023-04-29T13:06:16;17.33;;;10.67;;
19883;SDS011;10104;50.732;10.174;2023-04-29T13:08:38;16.40;;;11.20;;
19883;SDS011;10104;50.732;10.174;2023-04-29T13:10:59;12.20;;;8.80;;
19883;SDS011;10104;50.732;10.174;2023-04-29T13:13:21;11.20;;;9.50;;
19883;SDS011;10104;50.732;10.174;2023-04-29T13:15:43;12.53;;;10.33;;
19883;SDS011;10104;50.732;10.174;2023-04-29T13:18:05;14.10;;;9.93;;
19883;SDS011;10104;50.732;10.174;2023-04-29T13:20:27;13.87;;;10.23;;
19883;SDS011;10104;50.732;10.174;2023-04-29T13:22:48;13.73;;;9.13;;
19883;SDS011;10104;50.732;10.174;2023-04-29T13:25:10;11.73;;;8.53;;
19883;SDS011;10104;50.732;10.174;2023-04-29T13:27:32;12.33;;;10.20;;
19883;SDS011;10104;50.732;10.174;2023-04-29T13:29:54;10.73;;;9.37;;
19883;SDS011;10104;50.732;10.174;2023-04-29T13:32:16;12.27;;;9.90;;
19883;SDS011;10104;50.732;10.174;2023-04-29T13:34:39;19.35;;;12.52;;
19883;SDS011;10104;50.732;10.174;2023-04-29T13:37:03;42.53;;;14.70;;
19883;SDS011;10104;50.732;10.174;2023-04-29T13:39:25;17.60;;;10.63;;
19883;SDS011;10104;50.732;10.174;2023-04-29T13:41:46;12.05;;;10.57;;
19883;SDS011;10104;50.732;10.174;2023-04-29T13:44:07;18.02;;;10.55;;
19883;SDS011;10104;50.732;10.174;2023-04-29T13:46:49;20.75;;;11.27;;
19883;SDS011;10104;50.732;10.174;2023-04-29T13:49:12;17.00;;;11.68;;
19883;SDS011;10104;50.732;10.174;2023-04-29T13:51:54;28.05;;;13.32;;
19883;SDS011;10104;50.732;10.174;2023-04-29T13:54:35;16.75;;;11.43;;
19883;SDS011;10104;50.732;10.174;2023-04-29T13:57:17;16.30;;;10.48;;
19883;SDS011;10104;50.732;10.174;2023-04-29T13:59:42;12.10;;;10.30;;
19883;SDS011;10104;50.732;10.174;2023-04-29T14:02:16;17.45;;;12.38;;
19883;SDS011;10104;50.732;10.174;2023-04-29T14:04:40;11.65;;;10.35;;
19883;SDS011;10104;50.732;10.174;2023-04-29T14:07:02;14.10;;;11.43;;
19883;SDS011;10104;50.732;10.174;2023-04-29T14:09:24;12.55;;;11.23;;
19883;SDS011;10104;50.732;10.174;2023-04-29T14:11:46;12.75;;;11.18;;